createdAt,value
2022-08-16T00:01:42.010Z,97.20
2022-08-16T00:04:09.573Z,97.30
2022-08-16T00:06:40.670Z,97.30
2022-08-16T00:09:10.791Z,97.50
2022-08-16T00:11:41.658Z,97.60
2022-08-16T00:14:14.959Z,97.70
2022-08-16T00:17:00.987Z,97.80
2022-08-16T00:19:41.270Z,97.90
2022-08-16T00:22:13.708Z,98.10
2022-08-16T00:24:44.705Z,98.10
2022-08-16T00:27:13.993Z,98.30
2022-08-16T00:29:41.802Z,98.40
2022-08-16T00:32:11.239Z,98.50
2022-08-16T00:34:43.320Z,98.60
2022-08-16T00:37:16.784Z,98.70
2022-08-16T00:39:47.726Z,98.70
2022-08-16T00:42:30.296Z,98.80
2022-08-16T00:45:08.241Z,98.90
2022-08-16T00:47:48.963Z,99.10
2022-08-16T00:50:36.521Z,99.10
2022-08-16T00:53:08.251Z,99.20
2022-08-16T00:55:41.413Z,99.10
2022-08-16T00:58:12.920Z,99.20
2022-08-16T01:00:54.219Z,99.30
2022-08-16T01:03:30.181Z,99.30
2022-08-16T01:06:00.283Z,99.40
2022-08-16T01:08:54.084Z,99.40
2022-08-16T01:11:26.275Z,99.50
2022-08-16T01:14:02.863Z,99.60
2022-08-16T01:16:31.158Z,99.80
2022-08-16T01:19:13.689Z,99.80
2022-08-16T01:21:42.871Z,99.90
2022-08-16T01:24:51.631Z,99.90
2022-08-16T01:27:29.309Z,99.90
2022-08-16T01:30:20.705Z,99.90
2022-08-16T01:33:01.605Z,99.90
2022-08-16T01:35:47.462Z,99.90
2022-08-16T01:38:29.868Z,99.90
2022-08-16T01:41:09.078Z,99.90
2022-08-16T01:43:39.983Z,99.90
2022-08-16T01:46:39.415Z,99.90
2022-08-16T01:49:19.224Z,99.90
2022-08-16T01:51:54.265Z,99.90
2022-08-16T01:54:30.662Z,99.90
2022-08-16T01:58:14.030Z,99.90
2022-08-16T02:00:49.182Z,99.90
2022-08-16T02:03:17.062Z,99.90
2022-08-16T02:05:52.226Z,99.90
2022-08-16T02:08:33.312Z,99.90
2022-08-16T02:11:05.962Z,99.90
2022-08-16T02:13:33.575Z,99.90
2022-08-16T02:16:01.567Z,99.90
2022-08-16T02:18:29.373Z,99.90
2022-08-16T02:20:56.981Z,99.90
2022-08-16T02:23:25.571Z,99.90
2022-08-16T02:25:57.279Z,99.90
2022-08-16T02:28:26.999Z,99.90
2022-08-16T02:30:57.702Z,99.90
2022-08-16T02:33:44.195Z,99.90
2022-08-16T02:36:47.584Z,99.90
2022-08-16T02:39:07.236Z,99.90
2022-08-16T02:41:39.612Z,99.90
2022-08-16T02:44:13.648Z,99.90
2022-08-16T02:46:49.863Z,99.90
2022-08-16T02:49:21.202Z,99.90
2022-08-16T02:51:50.229Z,99.90
2022-08-16T02:54:17.615Z,99.90
2022-08-16T02:56:47.889Z,99.90
2022-08-16T02:59:15.280Z,99.90
2022-08-16T03:01:42.541Z,99.90
2022-08-16T03:04:24.828Z,99.90
2022-08-16T03:06:58.116Z,99.90
2022-08-16T03:09:28.634Z,99.90
2022-08-16T03:11:57.509Z,99.90
2022-08-16T03:14:25.287Z,99.90
2022-08-16T03:17:00.231Z,99.90
2022-08-16T03:19:47.633Z,99.90
2022-08-16T03:22:27.932Z,99.90
2022-08-16T03:25:02.069Z,99.90
2022-08-16T03:27:32.604Z,99.90
2022-08-16T03:30:16.059Z,99.90
2022-08-16T03:32:51.531Z,99.90
2022-08-16T03:35:32.727Z,99.90
2022-08-16T03:38:32.645Z,99.90
2022-08-16T03:40:52.830Z,99.90
2022-08-16T03:43:21.642Z,99.90
2022-08-16T03:45:52.803Z,99.90
2022-08-16T03:48:36.251Z,99.90
2022-08-16T03:51:09.378Z,99.90
2022-08-16T03:53:38.557Z,99.90
2022-08-16T03:56:07.895Z,99.90
2022-08-16T03:58:36.957Z,99.90
2022-08-16T04:01:05.592Z,99.90
2022-08-16T04:03:34.051Z,99.90
2022-08-16T04:06:03.549Z,99.90
2022-08-16T04:08:31.433Z,99.90
2022-08-16T04:11:03.842Z,99.90
2022-08-16T04:13:58.907Z,99.90
2022-08-16T04:16:26.509Z,99.90
2022-08-16T04:19:01.282Z,99.90
2022-08-16T04:21:32.303Z,99.90
2022-08-16T04:24:00.716Z,99.90
2022-08-16T04:26:31.195Z,99.90
2022-08-16T04:29:16.572Z,99.90
2022-08-16T04:31:55.532Z,99.90
2022-08-16T04:34:27.808Z,99.90
2022-08-16T04:36:57.036Z,99.90
2022-08-16T04:39:45.783Z,99.90
2022-08-16T04:42:26.125Z,99.90
2022-08-16T04:44:56.188Z,99.90
2022-08-16T04:47:33.401Z,99.90
2022-08-16T04:50:08.929Z,99.90
2022-08-16T04:52:37.608Z,99.90
2022-08-16T04:55:16.756Z,99.90
2022-08-16T04:57:46.376Z,99.90
2022-08-16T05:00:34.776Z,99.90
2022-08-16T05:03:10.352Z,99.90
2022-08-16T05:05:45.290Z,99.90
2022-08-16T05:08:29.248Z,99.90
2022-08-16T05:11:03.483Z,99.90
2022-08-16T05:13:41.226Z,99.90
2022-08-16T05:16:25.127Z,99.90
2022-08-16T05:18:58.291Z,99.90
2022-08-16T05:21:38.058Z,99.90
2022-08-16T05:24:09.146Z,99.90
2022-08-16T05:26:43.023Z,99.90
2022-08-16T05:29:14.754Z,99.90
2022-08-16T05:31:48.444Z,99.90
2022-08-16T05:34:25.875Z,99.90
2022-08-16T05:36:57.298Z,99.90
2022-08-16T05:39:27.476Z,99.90
2022-08-16T05:41:56.886Z,99.90
2022-08-16T05:44:25.389Z,99.90
2022-08-16T05:47:00.171Z,99.90
2022-08-16T05:49:38.456Z,99.90
2022-08-16T05:52:11.707Z,99.90
2022-08-16T05:54:47.255Z,99.90
2022-08-16T05:57:19.009Z,99.90
2022-08-16T05:59:50.602Z,99.90
2022-08-16T06:02:30.745Z,99.90
2022-08-16T06:05:00.949Z,99.90
2022-08-16T06:07:29.531Z,99.90
2022-08-16T06:10:01.593Z,99.90
2022-08-16T06:12:31.047Z,99.90
2022-08-16T06:15:11.758Z,99.90
2022-08-16T06:17:44.525Z,99.90
2022-08-16T06:20:25.673Z,99.90
2022-08-16T06:23:11.586Z,99.90
2022-08-16T06:25:39.813Z,99.90
2022-08-16T06:28:16.912Z,99.90
2022-08-16T06:30:59.244Z,99.90
2022-08-16T06:33:29.509Z,99.90
2022-08-16T06:36:11.813Z,99.90
2022-08-16T06:38:55.387Z,99.90
2022-08-16T06:41:27.400Z,99.90
2022-08-16T06:43:55.910Z,99.90
2022-08-16T06:46:31.789Z,99.90
2022-08-16T06:49:01.014Z,99.90
2022-08-16T06:51:46.612Z,99.90
2022-08-16T06:54:17.409Z,99.90
2022-08-16T06:56:45.818Z,99.90
2022-08-16T06:59:13.395Z,99.90
2022-08-16T07:01:46.250Z,99.90
2022-08-16T07:04:32.324Z,99.90
2022-08-16T07:07:02.914Z,99.90
2022-08-16T07:09:30.561Z,99.90
2022-08-16T07:12:03.704Z,99.90
2022-08-16T07:14:35.159Z,99.90
2022-08-16T07:17:03.397Z,99.90
2022-08-16T07:20:02.850Z,99.90
2022-08-16T07:22:37.569Z,99.90
2022-08-16T07:25:15.977Z,99.90
2022-08-16T07:27:44.867Z,99.90
2022-08-16T07:30:39.015Z,99.90
2022-08-16T07:33:06.992Z,99.90
2022-08-16T07:35:34.759Z,99.90
2022-08-16T07:38:06.376Z,99.90
2022-08-16T07:40:59.708Z,99.90
2022-08-16T07:43:25.140Z,99.90
2022-08-16T07:45:56.719Z,99.90
2022-08-16T07:48:24.178Z,99.90
2022-08-16T07:50:55.673Z,99.90
2022-08-16T07:53:25.397Z,99.30
2022-08-16T07:55:57.895Z,98.60
2022-08-16T07:58:33.931Z,98.40
2022-08-16T08:01:10.631Z,97.70
2022-08-16T08:03:48.198Z,97.20
2022-08-16T08:06:25.068Z,96.90
2022-08-16T08:08:57.015Z,96.10
2022-08-16T08:11:28.613Z,95.50
2022-08-16T08:14:03.713Z,95.00
2022-08-16T08:16:32.856Z,94.20
2022-08-16T08:19:02.773Z,93.80
2022-08-16T08:22:01.152Z,93.30
2022-08-16T08:24:32.359Z,93.10
2022-08-16T08:27:04.374Z,93.20
2022-08-16T08:29:37.764Z,93.10
2022-08-16T08:32:58.489Z,93.20
2022-08-16T08:35:03.249Z,92.90
2022-08-16T08:37:54.763Z,93.10
2022-08-16T08:40:24.748Z,93.30
2022-08-16T08:43:00.150Z,93.30
2022-08-16T08:45:47.891Z,93.70
2022-08-16T08:48:32.792Z,94.00
2022-08-16T08:51:00.345Z,93.80
2022-08-16T08:53:29.963Z,93.80
2022-08-16T08:55:59.261Z,93.70
2022-08-16T08:58:34.086Z,93.10
2022-08-16T09:01:03.904Z,92.60
2022-08-16T09:03:32.387Z,92.30
2022-08-16T09:06:01.089Z,91.90
2022-08-16T09:08:28.563Z,91.40
2022-08-16T09:11:01.944Z,90.70
2022-08-16T09:13:32.269Z,90.50
2022-08-16T09:16:00.570Z,89.80
2022-08-16T09:18:35.703Z,88.30
2022-08-16T09:21:07.216Z,87.60
2022-08-16T09:23:40.109Z,85.70
2022-08-16T09:26:44.129Z,85.10
2022-08-16T09:29:14.882Z,83.50
2022-08-16T09:31:44.962Z,83.10
2022-08-16T09:34:18.611Z,82.90
2022-08-16T09:36:47.006Z,82.70
2022-08-16T09:39:16.643Z,81.40
2022-08-16T09:41:53.886Z,81.10
2022-08-16T09:45:11.181Z,81.20
2022-08-16T09:47:13.859Z,80.70
2022-08-16T09:49:41.812Z,80.50
2022-08-16T09:52:10.815Z,79.50
2022-08-16T09:54:44.354Z,79.00
2022-08-16T09:57:13.084Z,77.00
2022-08-16T09:59:41.895Z,75.60
2022-08-16T10:02:26.261Z,75.00
2022-08-16T10:04:55.383Z,74.70
2022-08-16T10:07:44.811Z,74.70
2022-08-16T10:10:18.867Z,74.40
2022-08-16T10:13:14.393Z,73.30
2022-08-16T10:15:55.008Z,72.90
2022-08-16T10:18:56.319Z,71.80
2022-08-16T10:21:11.471Z,70.90
2022-08-16T10:23:39.422Z,70.20
2022-08-16T10:27:17.613Z,69.40
2022-08-16T10:28:54.250Z,69.00
2022-08-16T10:31:44.414Z,68.30
2022-08-16T10:34:31.299Z,67.30
2022-08-16T10:36:57.013Z,67.00
2022-08-16T10:39:24.893Z,66.90
2022-08-16T10:41:52.036Z,66.00
2022-08-16T10:44:19.219Z,64.90
2022-08-16T10:46:46.402Z,64.30
2022-08-16T10:49:16.819Z,63.50
2022-08-16T10:52:03.407Z,63.00
2022-08-16T10:54:34.161Z,62.10
2022-08-16T10:57:21.227Z,61.40
2022-08-16T10:59:57.793Z,61.00
2022-08-16T11:02:59.421Z,60.50
2022-08-16T11:05:17.668Z,59.80
2022-08-16T11:07:52.073Z,58.90
2022-08-16T11:16:26.807Z,57.60
2022-08-16T11:19:03.918Z,57.40
2022-08-16T11:22:11.164Z,57.30
2022-08-16T11:24:41.267Z,57.50
2022-08-16T11:27:19.776Z,58.00
2022-08-16T11:29:52.131Z,58.30
2022-08-16T11:32:29.819Z,58.70
2022-08-16T11:35:13.838Z,59.10
2022-08-16T11:38:47.151Z,59.20
2022-08-16T11:41:00.360Z,58.60
2022-08-16T11:43:35.926Z,58.00
2022-08-16T11:46:44.141Z,57.70
2022-08-16T11:48:58.968Z,57.10
2022-08-16T11:51:26.296Z,57.50
2022-08-16T11:53:53.538Z,56.60
2022-08-16T11:56:39.496Z,56.70
2022-08-16T11:59:08.877Z,56.30
2022-08-16T12:01:44.605Z,56.50
2022-08-16T12:04:23.815Z,56.30
2022-08-16T12:06:54.765Z,56.40
2022-08-16T12:09:24.913Z,56.20
2022-08-16T12:11:58.393Z,56.20
2022-08-16T12:14:35.434Z,56.60
2022-08-16T12:17:08.117Z,57.00
2022-08-16T12:19:36.713Z,57.10
2022-08-16T12:22:19.369Z,57.20
2022-08-16T12:24:52.551Z,57.70
2022-08-16T12:27:24.263Z,57.70
2022-08-16T12:29:58.366Z,57.20
2022-08-16T12:32:38.641Z,56.10
2022-08-16T12:35:14.924Z,55.70
2022-08-16T12:37:46.235Z,55.20
2022-08-16T12:40:25.375Z,54.60
2022-08-16T12:43:00.926Z,54.20
2022-08-16T12:45:33.250Z,54.50
2022-08-16T12:48:33.624Z,54.10
2022-08-16T12:51:23.803Z,53.80
2022-08-16T12:53:55.795Z,53.30
2022-08-16T12:56:28.773Z,53.30
2022-08-16T12:58:58.380Z,52.40
2022-08-16T13:01:31.943Z,52.30
2022-08-16T13:04:12.254Z,52.10
2022-08-16T13:06:52.508Z,51.80
2022-08-16T13:09:26.875Z,51.40
2022-08-16T13:12:23.568Z,51.30
2022-08-16T13:14:53.931Z,51.10
2022-08-16T13:17:29.875Z,51.70
2022-08-16T13:20:13.898Z,51.50
2022-08-16T13:22:50.413Z,51.70
2022-08-16T13:25:23.892Z,51.40
2022-08-16T13:28:14.988Z,51.40
2022-08-16T13:30:50.729Z,51.30
2022-08-16T13:33:29.986Z,51.60
2022-08-16T13:36:00.841Z,50.70
2022-08-16T13:38:31.371Z,50.50
2022-08-16T13:41:12.516Z,50.50
2022-08-16T13:43:42.222Z,50.40
2022-08-16T13:46:09.431Z,50.50
2022-08-16T13:48:43.883Z,50.10
2022-08-16T13:51:19.553Z,49.40
2022-08-16T13:53:59.074Z,49.10
2022-08-16T13:56:36.890Z,49.00
2022-08-16T13:59:20.383Z,49.30
2022-08-16T14:01:59.870Z,48.90
2022-08-16T14:04:36.518Z,49.10
2022-08-16T14:07:09.362Z,48.80
2022-08-16T14:09:38.529Z,48.80
2022-08-16T14:12:24.251Z,48.80
2022-08-16T14:14:56.351Z,48.70
2022-08-16T14:17:25.414Z,48.90
2022-08-16T14:19:53.543Z,48.80
2022-08-16T14:22:39.966Z,49.00
2022-08-16T14:25:16.579Z,49.30
2022-08-16T14:27:46.924Z,49.70
2022-08-16T14:30:18.809Z,50.10
2022-08-16T14:32:49.601Z,50.10
2022-08-16T14:35:36.844Z,50.40
2022-08-16T14:38:18.544Z,50.60
2022-08-16T14:40:52.750Z,51.10
2022-08-16T14:43:23.641Z,51.40
2022-08-16T14:45:51.351Z,51.40
2022-08-16T14:48:26.378Z,51.70
2022-08-16T14:50:55.494Z,51.70
2022-08-16T14:53:26.459Z,51.90
2022-08-16T14:55:54.307Z,51.60
2022-08-16T14:58:34.593Z,51.50
2022-08-16T15:01:03.042Z,51.50
2022-08-16T15:03:32.945Z,51.10
2022-08-16T15:06:01.995Z,51.10
2022-08-16T15:08:36.527Z,51.00
2022-08-16T15:11:06.067Z,50.80
2022-08-16T15:13:35.937Z,50.90
2022-08-16T15:16:04.240Z,51.00
2022-08-16T15:18:33.706Z,51.20
2022-08-16T15:21:04.344Z,51.40
2022-08-16T15:23:33.867Z,51.80
2022-08-16T15:26:04.012Z,51.90
2022-08-16T15:28:38.050Z,51.50
2022-08-16T15:31:09.811Z,51.50
2022-08-16T15:33:56.595Z,51.80
2022-08-16T15:36:26.482Z,51.90
2022-08-16T15:39:05.793Z,51.60
2022-08-16T15:41:46.908Z,51.50
2022-08-16T15:44:22.992Z,51.40
2022-08-16T15:46:56.327Z,51.50
2022-08-16T15:49:36.897Z,51.50
2022-08-16T15:52:20.560Z,51.70
2022-08-16T15:54:53.613Z,51.90
2022-08-16T15:57:25.905Z,52.10
2022-08-16T15:59:56.301Z,52.80
2022-08-16T16:02:33.600Z,52.90
2022-08-16T16:05:06.789Z,52.70
2022-08-16T16:07:35.528Z,52.30
2022-08-16T16:10:13.141Z,52.60
2022-08-16T16:12:50.951Z,52.80
2022-08-16T16:15:26.592Z,52.80
2022-08-16T16:17:57.754Z,53.00
2022-08-16T16:20:31.080Z,52.80
2022-08-16T16:23:03.690Z,52.70
2022-08-16T16:25:44.003Z,51.70
2022-08-16T16:29:05.181Z,51.50
2022-08-16T16:31:15.107Z,51.60
2022-08-16T16:33:47.863Z,51.60
2022-08-16T16:36:23.110Z,51.70
2022-08-16T16:38:53.367Z,51.70
2022-08-16T16:41:26.535Z,51.80
2022-08-16T16:43:56.323Z,51.60
2022-08-16T16:46:41.304Z,51.60
2022-08-16T16:49:14.084Z,51.60
2022-08-16T16:51:44.495Z,51.80
2022-08-16T16:54:13.393Z,52.10
2022-08-16T16:56:54.954Z,52.10
2022-08-16T16:59:23.644Z,52.00
2022-08-16T17:01:59.608Z,51.70
2022-08-16T17:04:38.813Z,51.70
2022-08-16T17:07:10.627Z,51.80
2022-08-16T17:09:40.126Z,51.90
2022-08-16T17:12:14.607Z,52.10
2022-08-16T17:14:53.579Z,52.30
2022-08-16T17:17:21.455Z,52.90
2022-08-16T17:19:48.776Z,53.10
2022-08-16T17:22:20.943Z,53.40
2022-08-16T17:24:53.363Z,53.80
2022-08-16T17:27:32.530Z,54.00
2022-08-16T17:30:20.167Z,54.00
2022-08-16T17:32:59.576Z,54.30
2022-08-16T17:38:32.852Z,54.50
2022-08-16T17:39:28.160Z,54.50
2022-08-16T17:41:08.016Z,54.80
2022-08-16T17:43:44.155Z,54.80
2022-08-16T17:46:41.245Z,54.90
2022-08-16T17:49:01.741Z,55.00
2022-08-16T17:51:28.903Z,55.00
2022-08-16T17:53:57.145Z,55.00
2022-08-16T17:56:24.515Z,55.20
2022-08-16T17:58:52.044Z,55.30
2022-08-16T18:01:28.734Z,55.30
2022-08-16T18:04:06.716Z,55.30
2022-08-16T18:06:37.307Z,55.20
2022-08-16T18:09:05.118Z,55.20
2022-08-16T18:11:41.156Z,55.40
2022-08-16T18:14:12.142Z,55.50
2022-08-16T18:16:41.405Z,55.70
2022-08-16T18:19:11.011Z,56.00
2022-08-16T18:21:57.038Z,56.10
2022-08-16T18:24:28.580Z,56.20
2022-08-16T18:26:56.369Z,56.40
2022-08-16T18:29:49.889Z,56.60
2022-08-16T18:32:22.158Z,56.60
2022-08-16T18:34:54.178Z,56.60
2022-08-16T18:37:23.688Z,56.60
2022-08-16T18:39:55.130Z,56.70
2022-08-16T18:42:25.869Z,56.80
2022-08-16T18:44:53.178Z,56.90
2022-08-16T18:47:20.986Z,56.90
2022-08-16T18:49:48.595Z,57.00
2022-08-16T18:52:25.538Z,57.20
2022-08-16T18:55:01.818Z,57.40
2022-08-16T18:57:41.198Z,57.50
2022-08-16T19:00:17.661Z,57.70
2022-08-16T19:02:58.878Z,58.10
2022-08-16T19:05:30.012Z,58.30
2022-08-16T19:07:58.569Z,58.50
2022-08-16T19:10:26.048Z,58.70
2022-08-16T19:12:53.714Z,59.10
2022-08-16T19:15:29.248Z,59.40
2022-08-16T19:17:57.173Z,59.90
2022-08-16T19:20:28.729Z,59.80
2022-08-16T19:23:10.594Z,60.00
2022-08-16T19:25:49.206Z,60.30
2022-08-16T19:28:51.774Z,60.70
2022-08-16T19:31:25.645Z,61.10
2022-08-16T19:33:57.015Z,61.20
2022-08-16T19:36:35.250Z,61.30
2022-08-16T19:39:11.564Z,61.50
2022-08-16T19:41:45.492Z,61.80
2022-08-16T19:44:13.632Z,61.90
2022-08-16T19:46:45.817Z,62.00
2022-08-16T19:49:15.689Z,62.20
2022-08-16T19:51:44.437Z,62.40
2022-08-16T19:54:14.925Z,62.60
2022-08-16T19:56:42.154Z,62.80
2022-08-16T19:59:19.320Z,63.10
2022-08-16T20:01:51.216Z,63.50
2022-08-16T20:04:18.704Z,63.80
2022-08-16T20:06:46.964Z,64.20
2022-08-16T20:09:15.123Z,64.60
2022-08-16T20:11:49.223Z,65.10
2022-08-16T20:14:24.586Z,65.50
2022-08-16T20:16:59.074Z,65.90
2022-08-16T20:19:36.338Z,66.10
2022-08-16T20:22:49.662Z,66.30
2022-08-16T20:25:15.278Z,67.20
2022-08-16T20:27:43.094Z,67.60
2022-08-16T20:30:16.843Z,68.10
2022-08-16T20:32:46.075Z,68.90
2022-08-16T20:35:17.052Z,69.50
2022-08-16T20:37:44.758Z,70.30
2022-08-16T20:40:34.330Z,70.80
2022-08-16T20:43:15.636Z,72.40
2022-08-16T20:45:46.336Z,73.00
2022-08-16T20:48:14.447Z,73.10
2022-08-16T20:50:42.466Z,73.40
2022-08-16T20:53:10.011Z,74.20
2022-08-16T20:55:40.192Z,74.50
2022-08-16T20:58:07.518Z,74.70
2022-08-16T21:00:34.860Z,75.20
2022-08-16T21:03:11.655Z,75.60
2022-08-16T21:05:39.339Z,76.10
2022-08-16T21:08:50.185Z,76.30
2022-08-16T21:10:54.635Z,76.50
2022-08-16T21:13:22.311Z,76.80
2022-08-16T21:15:49.564Z,77.60
2022-08-16T21:18:16.850Z,78.70
2022-08-16T21:20:44.058Z,80.00
2022-08-16T21:23:11.519Z,81.10
2022-08-16T21:25:58.485Z,82.50
2022-08-16T21:28:39.561Z,83.70
2022-08-16T21:31:15.112Z,84.10
2022-08-16T21:33:44.000Z,84.70
2022-08-16T21:36:12.749Z,85.50
2022-08-16T21:38:40.912Z,87.30
2022-08-16T21:41:10.202Z,86.80
2022-08-16T21:43:37.485Z,87.30
2022-08-16T21:46:06.811Z,88.00
2022-08-16T21:48:36.742Z,89.20
2022-08-16T21:51:13.107Z,90.40
2022-08-16T21:53:41.717Z,91.10
2022-08-16T21:56:09.881Z,91.60
2022-08-16T21:58:45.399Z,91.70
2022-08-16T22:01:13.641Z,92.10
2022-08-16T22:03:40.824Z,92.60
2022-08-16T22:06:13.804Z,92.70
2022-08-16T22:08:48.801Z,93.20
2022-08-16T22:11:24.264Z,93.50
2022-08-16T22:13:58.619Z,93.80
2022-08-16T22:16:32.933Z,93.40
2022-08-16T22:19:01.670Z,93.70
2022-08-16T22:21:29.683Z,93.50
2022-08-16T22:23:58.824Z,93.30
2022-08-16T22:26:42.338Z,93.40
2022-08-16T22:29:14.938Z,94.10
2022-08-16T22:31:46.090Z,94.20
2022-08-16T22:34:14.415Z,94.30
2022-08-16T22:36:42.165Z,94.60
2022-08-16T22:39:13.895Z,94.90
2022-08-16T22:41:45.972Z,94.90
2022-08-16T22:44:14.201Z,94.60
2022-08-16T22:46:41.433Z,94.60
2022-08-16T22:49:09.123Z,94.80
2022-08-16T22:51:38.154Z,95.00
2022-08-16T22:54:41.348Z,95.00
2022-08-16T22:56:56.606Z,95.10
2022-08-16T22:59:25.360Z,95.20
2022-08-16T23:01:53.547Z,95.20
2022-08-16T23:04:22.365Z,95.40
2022-08-16T23:06:49.640Z,95.60
2022-08-16T23:09:17.027Z,95.80
2022-08-16T23:11:45.017Z,95.80
2022-08-16T23:14:12.387Z,95.90
2022-08-16T23:16:39.593Z,96.10
2022-08-16T23:19:12.973Z,96.30
2022-08-16T23:21:44.646Z,96.40
2022-08-16T23:24:14.351Z,96.40
2022-08-16T23:26:46.441Z,96.40
2022-08-16T23:29:25.609Z,96.40
2022-08-16T23:32:08.378Z,96.60
2022-08-16T23:34:35.890Z,96.40
2022-08-16T23:37:03.175Z,96.60
2022-08-16T23:39:30.394Z,96.60
2022-08-16T23:41:58.822Z,96.60
2022-08-16T23:44:56.742Z,96.90
2022-08-16T23:47:13.350Z,96.90
2022-08-16T23:49:59.359Z,97.00
2022-08-16T23:52:53.443Z,97.10
2022-08-16T23:55:16.268Z,97.20
2022-08-16T23:57:44.980Z,97.40
